createdAt,value
2018-08-14T00:00:24.720Z,8.53
2018-08-14T00:02:52.920Z,7.40
2018-08-14T00:05:21.203Z,7.03
2018-08-14T00:07:49.412Z,6.23
2018-08-14T00:10:17.599Z,8.60
2018-08-14T00:12:45.814Z,5.30
2018-08-14T00:15:15.320Z,6.23
2018-08-14T00:17:45.313Z,5.90
2018-08-14T00:20:15.138Z,6.77
2018-08-14T00:22:43.644Z,6.80
2018-08-14T00:25:11.988Z,6.97
2018-08-14T00:27:40.457Z,6.73
2018-08-14T00:30:14.172Z,9.20
2018-08-14T00:32:42.385Z,7.50
2018-08-14T00:35:10.651Z,8.23
2018-08-14T00:37:38.851Z,6.97
2018-08-14T00:40:10.124Z,7.73
2018-08-14T00:42:38.334Z,8.50
2018-08-14T00:45:08.927Z,7.50
2018-08-14T00:47:37.111Z,7.40
2018-08-14T00:50:06.609Z,9.73
2018-08-14T00:52:35.084Z,6.90
2018-08-14T00:55:03.679Z,7.47
2018-08-14T00:57:31.880Z,6.40
2018-08-14T01:00:00.073Z,7.10
2018-08-14T01:02:28.299Z,6.03
2018-08-14T01:04:56.481Z,6.07
2018-08-14T01:07:31.408Z,6.27
2018-08-14T01:09:59.597Z,5.70
2018-08-14T01:12:27.780Z,5.20
2018-08-14T01:14:56.010Z,6.37
2018-08-14T01:17:24.186Z,7.23
2018-08-14T01:19:52.396Z,6.10
2018-08-14T01:22:20.575Z,5.93
2018-08-14T01:24:48.752Z,6.13
2018-08-14T01:27:16.972Z,6.20
2018-08-14T01:29:45.691Z,8.90
2018-08-14T01:32:14.424Z,5.73
2018-08-14T01:34:42.669Z,6.60
2018-08-14T01:37:10.978Z,6.80
2018-08-14T01:39:39.159Z,7.60
2018-08-14T01:42:07.336Z,8.87
2018-08-14T01:44:35.551Z,9.07
2018-08-14T01:47:03.866Z,10.10
2018-08-14T01:49:32.039Z,8.77
2018-08-14T01:52:00.271Z,10.87
2018-08-14T01:54:28.455Z,10.10
2018-08-14T01:56:56.771Z,9.93
2018-08-14T01:59:24.946Z,10.40
2018-08-14T02:01:53.130Z,9.70
2018-08-14T02:04:21.338Z,9.83
2018-08-14T02:06:49.546Z,9.13
2018-08-14T02:09:17.735Z,10.33
2018-08-14T02:11:45.907Z,8.87
2018-08-14T02:14:14.119Z,8.80
2018-08-14T02:16:42.366Z,7.07
2018-08-14T02:19:10.552Z,8.53
2018-08-14T02:21:38.776Z,9.10
2018-08-14T02:24:06.973Z,8.30
2018-08-14T02:26:35.219Z,8.07
2018-08-14T02:29:03.408Z,6.77
2018-08-14T02:31:31.580Z,5.83
2018-08-14T02:33:59.762Z,6.00
2018-08-14T02:36:28.031Z,4.97
2018-08-14T02:38:56.207Z,5.00
2018-08-14T02:41:24.396Z,3.43
2018-08-14T02:43:52.575Z,3.80
2018-08-14T02:46:20.836Z,2.90
2018-08-14T02:48:49.047Z,3.03
2018-08-14T02:51:17.220Z,2.40
2018-08-14T02:53:45.421Z,1.93
2018-08-14T02:56:13.753Z,2.63
2018-08-14T02:58:41.937Z,1.90
2018-08-14T03:01:10.172Z,2.03
2018-08-14T03:03:38.364Z,1.40
2018-08-14T03:06:06.616Z,2.17
2018-08-14T03:08:34.815Z,2.00
2018-08-14T03:11:02.994Z,1.67
2018-08-14T03:13:31.189Z,1.67
2018-08-14T03:15:59.420Z,2.30
2018-08-14T03:18:27.596Z,1.60
2018-08-14T03:20:55.988Z,2.30
2018-08-14T03:23:24.237Z,1.33
2018-08-14T03:25:52.544Z,2.93
2018-08-14T03:28:20.790Z,1.07
2018-08-14T03:30:48.972Z,1.10
2018-08-14T03:33:17.155Z,0.90
2018-08-14T03:35:45.455Z,1.33
2018-08-14T03:38:13.663Z,1.10
2018-08-14T03:40:41.856Z,1.30
2018-08-14T03:43:10.159Z,1.73
2018-08-14T03:45:38.556Z,1.33
2018-08-14T03:48:07.026Z,1.73
2018-08-14T03:50:35.219Z,1.70
2018-08-14T03:53:03.446Z,1.67
2018-08-14T03:55:31.727Z,1.37
2018-08-14T03:57:59.924Z,2.80
2018-08-14T04:00:29.535Z,1.80
2018-08-14T04:02:58.375Z,1.53
2018-08-14T04:05:27.062Z,1.20
2018-08-14T04:07:55.288Z,2.67
2018-08-14T04:10:23.467Z,1.80
2018-08-14T04:12:51.627Z,0.97
2018-08-14T04:15:19.834Z,1.50
2018-08-14T04:17:48.034Z,1.07
2018-08-14T04:20:16.240Z,1.20
2018-08-14T04:22:45.140Z,1.17
2018-08-14T04:25:13.395Z,1.67
2018-08-14T04:27:41.598Z,2.60
2018-08-14T04:30:11.870Z,1.43
2018-08-14T04:32:40.376Z,0.90
2018-08-14T04:35:08.652Z,1.70
2018-08-14T04:37:36.836Z,1.43
2018-08-14T04:40:06.806Z,2.27
2018-08-14T04:42:34.999Z,1.47
2018-08-14T04:45:03.308Z,2.70
2018-08-14T04:47:31.507Z,1.10
2018-08-14T04:49:59.697Z,2.50
2018-08-14T04:52:27.893Z,2.13
2018-08-14T04:54:56.184Z,2.37
2018-08-14T04:57:24.387Z,2.13
2018-08-14T04:59:52.563Z,4.13
2018-08-14T05:02:20.768Z,2.10
2018-08-14T05:04:48.949Z,1.47
2018-08-14T05:07:17.179Z,1.70
2018-08-14T05:09:45.471Z,1.87
2018-08-14T05:12:13.664Z,2.20
2018-08-14T05:14:41.867Z,2.20
2018-08-14T05:17:10.032Z,1.73
2018-08-14T05:19:38.424Z,1.17
2018-08-14T05:22:06.636Z,1.67
2018-08-14T05:24:34.801Z,1.10
2018-08-14T05:27:03.011Z,2.03
2018-08-14T05:29:31.232Z,1.60
2018-08-14T05:31:59.426Z,2.80
2018-08-14T05:34:27.615Z,1.73
2018-08-14T05:39:30.523Z,1.60
2018-08-14T05:41:58.731Z,2.40
2018-08-14T05:44:26.932Z,1.80
2018-08-14T05:46:55.137Z,1.50
2018-08-14T05:49:23.317Z,2.10
2018-08-14T05:51:51.569Z,1.10
2018-08-14T05:54:19.820Z,1.60
2018-08-14T05:56:48.020Z,1.47
2018-08-14T05:59:16.220Z,1.73
2018-08-14T06:01:44.628Z,1.53
2018-08-14T06:04:13.195Z,1.87
2018-08-14T06:06:41.407Z,2.17
2018-08-14T06:09:11.816Z,1.90
2018-08-14T06:11:40.288Z,1.77
2018-08-14T06:14:08.548Z,1.50
2018-08-14T06:16:36.744Z,1.60
2018-08-14T06:19:05.234Z,2.00
2018-08-14T06:21:33.419Z,1.27
2018-08-14T06:24:01.629Z,2.67
2018-08-14T06:26:29.829Z,2.00
2018-08-14T06:28:58.083Z,1.87
2018-08-14T06:31:26.295Z,1.83
2018-08-14T06:33:54.541Z,1.97
2018-08-14T06:36:22.821Z,2.10
2018-08-14T06:38:51.010Z,1.27
2018-08-14T06:41:19.240Z,2.60
2018-08-14T06:43:47.436Z,1.60
2018-08-14T06:46:15.634Z,2.10
2018-08-14T06:48:43.917Z,1.30
2018-08-14T06:51:12.076Z,2.07
2018-08-14T06:53:40.259Z,2.17
2018-08-14T06:56:08.464Z,1.60
2018-08-14T06:58:36.655Z,1.83
2018-08-14T07:01:04.848Z,1.70
2018-08-14T07:03:33.015Z,1.43
2018-08-14T07:06:01.205Z,2.23
2018-08-14T07:08:29.391Z,2.13
2018-08-14T07:10:57.578Z,2.40
2018-08-14T07:13:25.981Z,2.33
2018-08-14T07:15:54.252Z,1.87
2018-08-14T07:18:22.443Z,2.20
2018-08-14T07:20:50.684Z,2.07
2018-08-14T07:23:18.886Z,1.90
2018-08-14T07:25:47.390Z,1.30
2018-08-14T07:28:15.677Z,1.53
2018-08-14T07:30:43.809Z,1.73
2018-08-14T07:33:12.009Z,1.70
2018-08-14T07:35:40.188Z,1.40
2018-08-14T07:38:08.355Z,2.63
2018-08-14T07:40:36.544Z,1.70
2018-08-14T07:43:11.044Z,1.53
2018-08-14T07:45:39.283Z,1.70
2018-08-14T07:48:07.499Z,1.80
2018-08-14T07:50:35.682Z,2.50
2018-08-14T07:53:03.915Z,1.90
2018-08-14T07:55:32.092Z,1.90
2018-08-14T07:58:00.323Z,2.67
2018-08-14T08:00:28.472Z,2.03
2018-08-14T08:02:56.676Z,1.47
2018-08-14T08:05:24.907Z,1.60
2018-08-14T08:07:53.088Z,2.13
2018-08-14T08:10:21.323Z,1.47
2018-08-14T08:12:49.511Z,2.70
2018-08-14T08:15:18.894Z,1.40
2018-08-14T08:17:47.592Z,2.00
2018-08-14T08:20:21.972Z,1.63
2018-08-14T08:22:50.260Z,1.70
2018-08-14T08:25:18.436Z,1.70
2018-08-14T08:27:46.744Z,1.40
2018-08-14T08:30:14.930Z,1.63
2018-08-14T08:32:43.112Z,1.43
2018-08-14T08:35:11.345Z,1.53
2018-08-14T08:37:39.565Z,1.43
2018-08-14T08:40:07.771Z,1.57
2018-08-14T08:42:35.951Z,1.47
2018-08-14T08:45:04.519Z,1.53
2018-08-14T08:47:32.691Z,1.20
2018-08-14T08:50:00.901Z,2.50
2018-08-14T08:52:29.070Z,2.73
2018-08-14T08:54:57.451Z,1.83
2018-08-14T08:57:25.640Z,1.73
2018-08-14T08:59:53.861Z,4.57
2018-08-14T09:02:22.046Z,2.10
2018-08-14T09:04:50.216Z,1.73
2018-08-14T09:07:18.403Z,2.13
2018-08-14T09:09:46.719Z,1.33
2018-08-14T09:12:14.895Z,1.80
2018-08-14T09:14:43.104Z,1.50
2018-08-14T09:17:42.939Z,1.67
2018-08-14T09:20:13.004Z,1.63
2018-08-14T09:22:41.283Z,1.37
2018-08-14T09:25:11.804Z,1.83
2018-08-14T09:27:40.760Z,1.37
2018-08-14T09:30:11.594Z,2.23
2018-08-14T09:32:39.827Z,1.27
2018-08-14T09:35:08.416Z,1.70
2018-08-14T09:37:37.547Z,1.30
2018-08-14T09:40:06.065Z,2.20
2018-08-14T09:42:34.247Z,1.83
2018-08-14T09:45:02.440Z,1.80
2018-08-14T09:47:30.620Z,1.43
2018-08-14T09:49:58.812Z,2.60
2018-08-14T09:52:27.000Z,1.50
2018-08-14T09:54:55.198Z,1.83
2018-08-14T09:57:23.420Z,1.73
2018-08-14T09:59:51.595Z,2.77
2018-08-14T10:02:28.969Z,2.00
2018-08-14T10:04:58.184Z,1.40
2018-08-14T10:07:31.903Z,2.73
2018-08-14T10:10:00.117Z,2.67
2018-08-14T10:12:28.285Z,1.43
2018-08-14T10:15:01.531Z,1.77
2018-08-14T10:17:29.735Z,2.03
2018-08-14T10:19:58.050Z,2.20
2018-08-14T10:22:26.173Z,2.70
2018-08-14T10:24:54.351Z,1.73
2018-08-14T10:27:22.531Z,1.30
2018-08-14T10:29:50.739Z,1.73
2018-08-14T10:32:18.948Z,1.87
2018-08-14T10:34:47.175Z,1.57
2018-08-14T10:37:15.359Z,1.63
2018-08-14T10:39:43.604Z,1.70
2018-08-14T10:42:11.800Z,1.57
2018-08-14T10:44:39.983Z,1.77
2018-08-14T10:47:08.192Z,1.80
2018-08-14T10:49:36.386Z,1.50
2018-08-14T10:52:04.565Z,2.40
2018-08-14T10:54:32.756Z,1.93
2018-08-14T10:57:00.983Z,1.50
2018-08-14T10:59:29.187Z,1.40
2018-08-14T11:01:57.358Z,3.30
2018-08-14T11:04:25.559Z,1.50
2018-08-14T11:06:53.735Z,1.10
2018-08-14T11:09:21.976Z,1.47
2018-08-14T11:11:55.483Z,1.70
2018-08-14T11:14:24.523Z,1.43
2018-08-14T11:16:53.567Z,2.10
2018-08-14T11:19:21.980Z,1.37
2018-08-14T11:21:50.167Z,1.40
2018-08-14T11:24:18.339Z,1.30
2018-08-14T11:26:46.598Z,1.43
2018-08-14T11:29:14.753Z,1.20
2018-08-14T11:31:42.954Z,1.40
2018-08-14T11:34:11.163Z,1.37
2018-08-14T11:36:39.368Z,1.73
2018-08-14T11:39:09.083Z,1.70
2018-08-14T11:41:37.405Z,0.90
2018-08-14T11:44:06.144Z,2.17
2018-08-14T11:46:34.331Z,1.20
2018-08-14T11:49:02.534Z,1.40
2018-08-14T11:51:30.737Z,1.47
2018-08-14T11:53:58.915Z,2.40
2018-08-14T11:56:27.104Z,2.03
2018-08-14T11:58:55.279Z,1.50
2018-08-14T12:01:23.438Z,1.93
2018-08-14T12:03:51.631Z,1.90
2018-08-14T12:06:19.879Z,1.00
2018-08-14T12:08:48.068Z,1.30
2018-08-14T12:11:16.282Z,1.43
2018-08-14T12:13:44.457Z,1.10
2018-08-14T12:16:12.642Z,1.40
2018-08-14T12:18:40.829Z,1.23
2018-08-14T12:21:09.032Z,1.10
2018-08-14T12:23:37.225Z,1.43
2018-08-14T12:26:05.704Z,2.77
2018-08-14T12:28:33.887Z,1.23
2018-08-14T12:31:02.080Z,1.40
2018-08-14T12:33:30.507Z,1.73
2018-08-14T12:35:58.687Z,2.73
2018-08-14T12:38:26.880Z,2.23
2018-08-14T12:40:55.051Z,1.30
2018-08-14T12:43:23.237Z,1.60
2018-08-14T12:45:51.424Z,1.47
2018-08-14T12:48:19.671Z,1.30
2018-08-14T12:50:47.878Z,1.30
2018-08-14T12:53:16.051Z,1.20
2018-08-14T12:55:44.263Z,1.20
2018-08-14T12:58:12.416Z,1.37
2018-08-14T13:00:40.611Z,1.30
2018-08-14T13:03:08.793Z,1.10
2018-08-14T13:05:36.972Z,1.30
2018-08-14T13:08:05.207Z,2.60
2018-08-14T13:10:33.385Z,1.73
2018-08-14T13:13:01.563Z,1.40
2018-08-14T13:15:29.761Z,1.17
2018-08-14T13:18:01.729Z,1.73
2018-08-14T13:20:29.952Z,1.20
2018-08-14T13:22:58.159Z,1.30
2018-08-14T13:25:26.370Z,1.10
2018-08-14T13:27:54.540Z,1.03
2018-08-14T13:30:22.753Z,1.13
2018-08-14T13:32:51.087Z,0.90
2018-08-14T13:35:19.252Z,2.20
2018-08-14T13:37:47.492Z,1.00
2018-08-14T13:40:15.729Z,1.50
2018-08-14T13:42:44.204Z,1.43
2018-08-14T13:45:13.216Z,1.40
2018-08-14T13:47:41.794Z,1.27
2018-08-14T13:50:10.909Z,1.53
2018-08-14T13:52:39.447Z,1.23
2018-08-14T14:02:02.757Z,2.00
2018-08-14T14:04:30.951Z,1.33
2018-08-14T14:06:59.156Z,1.43
2018-08-14T14:09:27.339Z,1.33
2018-08-14T14:11:55.550Z,3.73
2018-08-14T14:14:23.733Z,1.40
2018-08-14T14:16:51.930Z,1.10
2018-08-14T14:19:20.124Z,0.90
2018-08-14T14:21:48.876Z,1.27
2018-08-14T14:24:17.054Z,1.30
2018-08-14T14:26:45.255Z,1.53
2018-08-14T14:29:13.447Z,1.30
2018-08-14T14:31:41.651Z,1.30
2018-08-14T14:34:09.957Z,2.37
2018-08-14T14:36:38.244Z,2.10
2018-08-14T14:39:08.219Z,1.63
2018-08-14T14:41:36.473Z,2.50
2018-08-14T14:44:05.075Z,2.13
2018-08-14T14:46:33.319Z,2.20
2018-08-14T14:49:01.561Z,2.10
2018-08-14T14:51:29.924Z,1.93
2018-08-14T14:53:58.120Z,2.23
2018-08-14T14:56:26.316Z,2.80
2018-08-14T14:58:54.507Z,2.10
2018-08-14T15:01:22.719Z,2.23
2018-08-14T15:03:50.925Z,2.90
2018-08-14T15:06:19.128Z,3.00
2018-08-14T15:08:47.333Z,2.87
2018-08-14T15:11:15.496Z,3.60
2018-08-14T15:13:44.379Z,3.53
2018-08-14T15:16:12.615Z,2.93
2018-08-14T15:18:40.812Z,4.03
2018-08-14T15:21:08.999Z,3.40
2018-08-14T15:23:37.179Z,4.10
2018-08-14T15:26:05.368Z,4.13
2018-08-14T15:28:58.745Z,4.60
2018-08-14T15:31:27.102Z,4.27
2018-08-14T15:33:55.993Z,4.90
2018-08-14T15:36:25.505Z,3.30
2018-08-14T15:38:54.391Z,5.50
2018-08-14T15:41:22.552Z,5.10
2018-08-14T15:43:50.751Z,5.63
2018-08-14T15:46:18.935Z,6.20
2018-08-14T15:48:47.386Z,5.00
2018-08-14T15:51:15.595Z,6.17
2018-08-14T15:53:44.683Z,7.23
2018-08-14T15:56:13.001Z,8.77
2018-08-14T15:58:41.198Z,7.03
2018-08-14T16:01:09.396Z,6.60
2018-08-14T16:03:37.626Z,6.17
2018-08-14T16:06:05.948Z,10.30
2018-08-14T16:08:34.200Z,8.30
2018-08-14T16:11:02.431Z,10.20
2018-08-14T16:13:30.623Z,8.47
2018-08-14T16:15:58.828Z,8.43
2018-08-14T16:18:27.053Z,7.33
2018-08-14T16:20:55.304Z,7.80
2018-08-14T16:23:23.687Z,6.63
2018-08-14T16:25:51.957Z,5.80
2018-08-14T16:28:20.140Z,5.60
2018-08-14T16:30:48.880Z,5.77
2018-08-14T16:33:17.095Z,6.27
2018-08-14T16:35:45.403Z,6.20
2018-08-14T16:38:13.583Z,7.13
2018-08-14T16:40:41.844Z,6.37
2018-08-14T16:43:10.100Z,6.87
2018-08-14T16:45:38.395Z,7.13
2018-08-14T16:48:07.476Z,7.53
2018-08-14T16:50:35.649Z,5.90
2018-08-14T16:53:03.957Z,6.23
2018-08-14T16:55:32.251Z,5.57
2018-08-14T16:58:00.469Z,8.70
2018-08-14T17:00:33.984Z,5.23
2018-08-14T17:03:02.345Z,5.70
2018-08-14T17:05:30.703Z,5.17
2018-08-14T17:07:58.912Z,6.13
2018-08-14T17:10:27.582Z,5.53
2018-08-14T17:12:56.778Z,5.67
2018-08-14T17:15:25.592Z,5.40
2018-08-14T17:17:53.828Z,5.87
2018-08-14T17:20:21.097Z,6.07
2018-08-14T17:22:50.176Z,5.63
2018-08-14T17:25:18.528Z,4.70
2018-08-14T17:27:51.963Z,6.50
2018-08-14T17:30:22.578Z,4.73
2018-08-14T17:32:51.856Z,6.53
2018-08-14T17:35:20.283Z,4.70
2018-08-14T17:37:48.956Z,5.00
2018-08-14T17:40:18.666Z,5.23
2018-08-14T17:42:48.205Z,6.10
2018-08-14T17:45:19.232Z,5.83
2018-08-14T17:47:48.177Z,5.40
2018-08-14T17:50:16.433Z,6.17
2018-08-14T17:52:45.388Z,5.73
2018-08-14T17:55:13.677Z,5.67
2018-08-14T17:57:41.885Z,5.70
2018-08-14T18:00:13.686Z,5.50
2018-08-14T18:02:42.239Z,4.20
2018-08-14T18:05:11.571Z,4.13
2018-08-14T18:07:40.867Z,3.77
2018-08-14T18:10:18.168Z,4.77
2018-08-14T18:12:47.128Z,3.13
2018-08-14T18:15:16.324Z,3.70
2018-08-14T18:17:44.584Z,4.40
2018-08-14T18:20:15.895Z,2.50
2018-08-14T18:22:44.109Z,3.20
2018-08-14T18:25:14.100Z,3.60
2018-08-14T18:27:42.804Z,3.27
2018-08-14T18:30:12.488Z,3.50
2018-08-14T18:32:40.832Z,3.30
2018-08-14T18:35:09.821Z,3.77
2018-08-14T18:37:38.296Z,3.40
2018-08-14T18:40:12.071Z,4.73
2018-08-14T18:42:40.336Z,5.23
2018-08-14T18:45:10.572Z,4.67
2018-08-14T18:47:38.874Z,4.03
2018-08-14T18:50:08.355Z,5.23
2018-08-14T18:52:37.755Z,4.50
2018-08-14T18:55:07.026Z,4.10
2018-08-14T18:57:35.215Z,4.60
2018-08-14T19:00:04.404Z,5.30
2018-08-14T19:02:32.583Z,5.23
2018-08-14T19:05:01.355Z,4.40
2018-08-14T19:07:29.522Z,4.30
2018-08-14T19:09:57.867Z,4.07
2018-08-14T19:12:26.118Z,3.43
2018-08-14T19:14:54.356Z,4.10
2018-08-14T19:17:22.603Z,3.67
2018-08-14T19:19:50.937Z,3.73
2018-08-14T19:22:19.150Z,3.90
2018-08-14T19:24:47.299Z,3.50
2018-08-14T19:27:15.556Z,3.17
2018-08-14T19:29:43.787Z,3.70
2018-08-14T19:32:11.963Z,4.10
2018-08-14T19:34:40.315Z,3.90
2018-08-14T19:37:08.748Z,4.67
2018-08-14T19:39:37.047Z,4.00
2018-08-14T19:42:06.180Z,6.00
2018-08-14T19:44:34.408Z,3.23
2018-08-14T19:47:02.733Z,3.20
2018-08-14T19:49:31.036Z,4.60
2018-08-14T19:51:59.380Z,6.10
2018-08-14T19:54:27.580Z,5.80
2018-08-14T19:56:55.998Z,6.10
2018-08-14T19:59:24.298Z,6.40
2018-08-14T20:01:52.503Z,5.53
2018-08-14T20:04:20.698Z,5.37
2018-08-14T20:06:49.004Z,4.67
2018-08-14T20:09:17.181Z,4.73
2018-08-14T20:11:45.371Z,3.73
2018-08-14T20:14:13.575Z,3.97
2018-08-14T20:16:42.838Z,3.93
2018-08-14T20:19:11.539Z,5.77
2018-08-14T20:21:40.322Z,4.33
2018-08-14T20:24:08.999Z,4.17
2018-08-14T20:26:37.333Z,4.07
2018-08-14T20:29:05.860Z,3.40
2018-08-14T20:31:34.068Z,3.20
2018-08-14T20:34:02.274Z,4.40
2018-08-14T20:36:30.508Z,2.97
2018-08-14T20:38:58.702Z,2.83
2018-08-14T20:41:26.910Z,2.77
2018-08-14T20:43:55.213Z,3.10
2018-08-14T20:46:23.507Z,2.60
2018-08-14T20:48:51.783Z,2.97
2018-08-14T20:51:20.003Z,3.30
2018-08-14T20:53:48.233Z,2.37
2018-08-14T20:56:16.530Z,3.00
2018-08-14T20:58:44.770Z,3.03
2018-08-14T21:01:12.964Z,3.17
2018-08-14T21:03:41.183Z,3.17
2018-08-14T21:06:09.430Z,4.37
2018-08-14T21:08:37.611Z,3.60
2018-08-14T21:11:05.791Z,3.63
2018-08-14T21:13:33.993Z,4.23
2018-08-14T21:16:07.713Z,4.33
2018-08-14T21:18:36.672Z,3.43
2018-08-14T21:21:05.030Z,4.97
2018-08-14T21:23:33.254Z,3.60
2018-08-14T21:26:01.593Z,7.17
2018-08-14T21:28:29.731Z,3.70
2018-08-14T21:30:57.907Z,4.53
2018-08-14T21:33:26.104Z,3.80
2018-08-14T21:35:54.355Z,3.30
2018-08-14T21:38:22.529Z,4.07
2018-08-14T21:40:51.319Z,3.50
2018-08-14T21:43:19.514Z,3.67
2018-08-14T21:45:47.772Z,4.10
2018-08-14T21:48:15.980Z,3.93
2018-08-14T21:50:44.191Z,4.80
2018-08-14T21:53:12.388Z,3.73
2018-08-14T21:55:40.686Z,4.30
2018-08-14T21:58:08.901Z,4.50
2018-08-14T22:01:13.528Z,5.37
2018-08-14T22:03:43.009Z,3.77
2018-08-14T22:06:12.208Z,4.20
2018-08-14T22:08:40.484Z,3.30
2018-08-14T22:11:08.964Z,3.47
2018-08-14T22:13:37.260Z,3.60
2018-08-14T22:16:05.703Z,4.97
2018-08-14T22:18:33.908Z,4.07
2018-08-14T22:21:02.393Z,3.60
2018-08-14T22:23:31.075Z,3.50
2018-08-14T22:25:59.450Z,6.17
2018-08-14T22:28:27.667Z,3.70
2018-08-14T22:30:56.007Z,4.93
2018-08-14T22:33:24.215Z,3.97
2018-08-14T22:35:52.555Z,3.60
2018-08-14T22:38:20.763Z,2.97
2018-08-14T22:40:49.023Z,3.30
2018-08-14T22:43:17.256Z,3.93
2018-08-14T22:45:45.507Z,3.80
2018-08-14T22:48:13.735Z,3.80
2018-08-14T22:50:41.933Z,4.70
2018-08-14T22:53:10.183Z,3.97
2018-08-14T22:55:38.499Z,4.20
2018-08-14T22:58:06.748Z,5.43
2018-08-14T23:00:34.936Z,4.40
2018-08-14T23:03:03.099Z,3.80
2018-08-14T23:05:31.395Z,3.70
2018-08-14T23:07:59.763Z,5.83
2018-08-14T23:10:28.014Z,3.87
2018-08-14T23:12:56.181Z,3.67
2018-08-14T23:15:24.384Z,2.70
2018-08-14T23:17:52.604Z,3.70
2018-08-14T23:20:20.799Z,3.10
2018-08-14T23:22:48.986Z,3.83
2018-08-14T23:25:17.284Z,3.63
2018-08-14T23:27:45.466Z,4.10
2018-08-14T23:30:15.564Z,3.47
2018-08-14T23:32:44.214Z,4.17
2018-08-14T23:35:12.429Z,4.57
2018-08-14T23:37:40.632Z,4.37
2018-08-14T23:40:10.927Z,4.83
2018-08-14T23:42:39.127Z,4.30
2018-08-14T23:45:08.394Z,4.80
2018-08-14T23:47:36.618Z,3.30
2018-08-14T23:50:06.660Z,5.00
2018-08-14T23:52:34.841Z,3.90
2018-08-14T23:55:03.759Z,4.07
2018-08-14T23:57:31.979Z,3.90
